createdAt,value
2022-10-04T00:03:27.579Z,11.73
2022-10-04T00:08:42.678Z,6.88
2022-10-04T00:13:57.318Z,3.28
2022-10-04T00:19:12.633Z,3.42
2022-10-04T00:24:27.921Z,3.47
2022-10-04T00:29:43.637Z,3.95
2022-10-04T00:34:58.631Z,4.60
2022-10-04T00:40:13.590Z,5.32
2022-10-04T00:45:28.581Z,3.45
2022-10-04T00:50:43.941Z,2.95
2022-10-04T00:55:59.596Z,4.07
2022-10-04T01:01:14.623Z,3.35
2022-10-04T01:06:29.556Z,5.53
2022-10-04T01:11:44.868Z,4.97
2022-10-04T01:17:00.610Z,3.67
2022-10-04T01:22:15.598Z,4.45
2022-10-04T01:27:30.878Z,8.45
2022-10-04T01:32:46.578Z,12.32
2022-10-04T01:38:01.864Z,8.55
2022-10-04T01:43:17.920Z,7.47
2022-10-04T01:48:33.611Z,10.98
2022-10-04T01:53:48.607Z,11.63
2022-10-04T01:59:03.661Z,17.88
2022-10-04T02:04:22.228Z,15.18
2022-10-04T02:09:37.584Z,17.08
2022-10-04T02:14:52.714Z,15.30
2022-10-04T02:20:07.654Z,19.00
2022-10-04T02:25:22.644Z,21.90
2022-10-04T02:30:37.578Z,19.02
2022-10-04T02:35:52.594Z,21.90
2022-10-04T02:41:07.587Z,20.70
2022-10-04T02:46:22.635Z,19.42
2022-10-04T02:51:37.611Z,18.80
2022-10-04T02:56:52.388Z,21.95
2022-10-04T03:02:07.954Z,16.35
2022-10-04T03:07:23.609Z,13.35
2022-10-04T03:12:38.612Z,12.68
2022-10-04T03:17:53.594Z,13.20
2022-10-04T03:23:08.628Z,18.15
2022-10-04T03:28:23.681Z,26.55
2022-10-04T03:33:38.685Z,27.98
2022-10-04T03:38:53.644Z,19.73
2022-10-04T03:44:08.627Z,19.15
2022-10-04T03:49:23.690Z,23.92
2022-10-04T03:54:38.911Z,16.80
2022-10-04T03:59:54.597Z,35.08
2022-10-04T04:05:09.638Z,19.95
2022-10-04T04:10:24.899Z,22.17
2022-10-04T04:15:40.893Z,17.08
2022-10-04T04:20:56.581Z,15.55
2022-10-04T04:26:11.642Z,19.85
2022-10-04T04:31:26.683Z,13.48
2022-10-04T04:36:41.997Z,16.73
2022-10-04T04:41:57.674Z,13.38
2022-10-04T04:47:17.534Z,12.25
2022-10-04T04:52:33.605Z,12.52
2022-10-04T04:57:48.656Z,16.33
2022-10-04T05:03:03.393Z,10.73
2022-10-04T05:08:18.685Z,11.90
2022-10-04T05:13:33.689Z,15.25
2022-10-04T05:18:48.342Z,11.60
2022-10-04T05:24:03.607Z,11.73
2022-10-04T05:29:18.609Z,13.18
2022-10-04T05:34:33.673Z,10.93
2022-10-04T05:39:48.692Z,9.77
2022-10-04T05:45:03.733Z,13.98
2022-10-04T05:50:18.619Z,9.52
2022-10-04T05:55:33.632Z,9.48
2022-10-04T06:00:48.617Z,9.70
2022-10-04T06:06:03.642Z,8.57
2022-10-04T06:11:19.174Z,9.40
2022-10-04T06:16:34.618Z,10.07
2022-10-04T06:21:49.618Z,10.02
2022-10-04T06:27:04.948Z,8.75
2022-10-04T06:32:21.002Z,8.77
2022-10-04T06:37:36.627Z,9.13
2022-10-04T06:42:51.824Z,10.30
2022-10-04T06:48:06.398Z,10.10
2022-10-04T06:53:21.684Z,8.82
2022-10-04T06:58:36.651Z,13.52
2022-10-04T07:03:51.962Z,7.30
2022-10-04T07:09:07.600Z,9.68
2022-10-04T07:14:22.935Z,8.15
2022-10-04T07:19:38.632Z,9.55
2022-10-04T07:24:53.618Z,9.38
2022-10-04T07:30:08.613Z,6.10
2022-10-04T07:35:23.610Z,7.25
2022-10-04T07:40:38.412Z,9.68
2022-10-04T07:45:53.709Z,7.32
2022-10-04T07:51:08.697Z,9.07
2022-10-04T07:56:23.684Z,7.45
2022-10-04T08:01:38.712Z,7.03
2022-10-04T08:06:53.674Z,5.82
2022-10-04T08:12:08.640Z,4.95
2022-10-04T08:17:23.649Z,6.75
2022-10-04T08:22:38.607Z,4.82
2022-10-04T08:27:53.769Z,6.75
2022-10-04T08:33:08.654Z,5.35
2022-10-04T08:38:23.913Z,7.38
2022-10-04T08:43:39.650Z,6.25
2022-10-04T08:48:54.634Z,6.47
2022-10-04T08:54:09.633Z,6.97
2022-10-04T08:59:24.660Z,7.03
2022-10-04T09:04:39.599Z,5.78
2022-10-04T09:09:54.883Z,5.97
2022-10-04T09:15:10.677Z,5.15
2022-10-04T09:20:38.305Z,6.53
2022-10-04T09:25:54.626Z,4.10
2022-10-04T09:31:09.723Z,7.45
2022-10-04T09:36:25.993Z,6.65
2022-10-04T09:41:41.656Z,6.63
2022-10-04T09:46:56.929Z,7.40
2022-10-04T09:52:12.611Z,4.70
2022-10-04T09:57:28.965Z,6.22
2022-10-04T10:02:44.844Z,4.20
2022-10-04T10:07:59.641Z,6.47
2022-10-04T10:13:14.636Z,3.90
2022-10-04T10:18:29.966Z,7.85
2022-10-04T10:23:45.631Z,3.58
2022-10-04T10:29:00.651Z,3.17
2022-10-04T10:34:17.029Z,5.05
2022-10-04T10:39:32.737Z,4.28
2022-10-04T10:44:48.937Z,4.90
2022-10-04T10:50:04.726Z,4.00
2022-10-04T10:55:19.725Z,5.85
2022-10-04T11:00:35.689Z,5.38
2022-10-04T11:05:50.673Z,8.52
2022-10-04T11:11:05.619Z,25.58
2022-10-04T11:16:20.701Z,29.25
2022-10-04T11:21:35.761Z,43.15
2022-10-04T11:26:50.712Z,51.10
2022-10-04T11:32:05.665Z,49.10
2022-10-04T11:37:20.635Z,54.03
2022-10-04T11:42:35.634Z,47.67
2022-10-04T11:47:50.631Z,42.88
2022-10-04T11:53:05.530Z,35.85
2022-10-04T11:58:20.640Z,45.28
2022-10-04T12:03:35.777Z,34.50
2022-10-04T12:08:51.469Z,30.35
2022-10-04T12:14:06.727Z,35.13
2022-10-04T12:19:21.996Z,27.83
2022-10-04T12:24:37.677Z,33.40
2022-10-04T12:29:52.428Z,23.33
2022-10-04T12:35:07.677Z,19.73
2022-10-04T12:40:22.704Z,18.45
2022-10-04T12:45:37.674Z,14.88
2022-10-04T12:50:52.974Z,18.83
2022-10-04T12:56:08.655Z,15.25
2022-10-04T13:01:24.079Z,13.63
2022-10-04T13:06:43.431Z,15.35
2022-10-04T13:11:58.970Z,14.70
2022-10-04T13:17:29.559Z,14.82
2022-10-04T13:22:57.047Z,14.18
2022-10-04T13:28:13.050Z,12.95
2022-10-04T13:33:28.673Z,8.68
2022-10-04T13:38:46.414Z,9.45
2022-10-04T13:44:01.651Z,7.95
2022-10-04T13:49:16.670Z,12.70
2022-10-04T13:54:31.649Z,6.82
2022-10-04T13:59:46.951Z,8.48
2022-10-04T14:05:05.751Z,9.18
2022-10-04T14:10:23.992Z,12.98
2022-10-04T14:15:39.662Z,8.02
2022-10-04T14:20:54.642Z,7.72
2022-10-04T14:26:09.468Z,5.47
2022-10-04T14:31:24.606Z,5.95
2022-10-04T14:36:39.762Z,6.07
2022-10-04T14:41:54.710Z,5.72
2022-10-04T14:47:09.725Z,5.10
2022-10-04T14:52:24.690Z,3.70
2022-10-04T14:57:39.656Z,4.80
2022-10-04T15:02:54.659Z,6.15
2022-10-04T15:08:09.660Z,8.65
2022-10-04T15:13:25.039Z,7.50
2022-10-04T15:18:40.958Z,6.97
2022-10-04T15:23:57.056Z,5.38
2022-10-04T15:29:12.743Z,10.10
2022-10-04T15:34:27.650Z,5.07
2022-10-04T15:39:42.727Z,4.72
2022-10-04T15:44:57.664Z,3.95
2022-10-04T15:50:12.659Z,6.38
2022-10-04T15:55:27.448Z,5.25
2022-10-04T16:00:42.662Z,4.13
2022-10-04T16:05:57.666Z,6.05
2022-10-04T16:11:12.668Z,4.45
2022-10-04T16:16:27.804Z,5.07
2022-10-04T16:21:42.713Z,6.43
2022-10-04T16:26:57.983Z,6.57
2022-10-04T16:32:13.951Z,9.13
2022-10-04T16:37:31.018Z,5.47
2022-10-04T16:42:46.680Z,6.70
2022-10-04T16:48:01.665Z,4.63
2022-10-04T16:53:16.737Z,4.93
2022-10-04T16:58:31.706Z,5.65
2022-10-04T17:03:47.043Z,4.20
2022-10-04T17:09:02.432Z,5.65
2022-10-04T17:14:17.451Z,4.95
2022-10-04T17:19:32.675Z,5.07
2022-10-04T17:24:47.651Z,4.18
2022-10-04T17:30:02.683Z,3.08
2022-10-04T17:35:17.651Z,4.57
2022-10-04T17:40:32.680Z,5.05
2022-10-04T17:46:25.755Z,7.68
2022-10-04T17:51:40.676Z,6.15
2022-10-04T17:56:55.457Z,4.97
2022-10-04T18:02:10.775Z,4.07
2022-10-04T18:07:26.224Z,3.50
2022-10-04T18:12:42.064Z,4.25
2022-10-04T18:17:57.769Z,11.68
2022-10-04T18:23:12.673Z,4.82
2022-10-04T18:28:27.719Z,5.88
2022-10-04T18:33:42.674Z,5.28
2022-10-04T18:38:58.068Z,6.30
2022-10-04T18:44:13.691Z,7.43
2022-10-04T18:49:28.690Z,5.85
2022-10-04T18:54:43.709Z,10.80
2022-10-04T18:59:58.660Z,7.93
2022-10-04T19:05:13.696Z,4.65
2022-10-04T19:10:28.736Z,6.28
2022-10-04T19:15:43.464Z,10.05
2022-10-04T19:20:58.737Z,10.52
2022-10-04T19:31:48.739Z,6.57
2022-10-04T19:37:04.084Z,19.50
2022-10-04T19:42:19.714Z,6.22
2022-10-04T19:47:34.717Z,8.68
2022-10-04T19:52:49.734Z,9.15
2022-10-04T19:58:04.745Z,3.90
2022-10-04T20:03:19.726Z,7.70
2022-10-04T20:08:34.656Z,5.13
2022-10-04T20:13:49.490Z,5.47
2022-10-04T20:19:04.742Z,5.28
2022-10-04T20:24:19.710Z,4.20
2022-10-04T20:29:34.979Z,5.50
2022-10-04T20:34:50.768Z,4.80
2022-10-04T20:40:05.681Z,3.97
2022-10-04T20:45:21.153Z,5.43
2022-10-04T20:50:37.040Z,4.40
2022-10-04T20:55:52.670Z,8.35
2022-10-04T21:01:07.976Z,3.33
2022-10-04T21:06:24.074Z,3.67
2022-10-04T21:11:39.747Z,5.07
2022-10-04T21:16:57.575Z,7.43
2022-10-04T21:22:16.768Z,7.63
2022-10-04T21:27:32.041Z,5.50
2022-10-04T21:32:47.778Z,5.30
2022-10-04T21:38:02.682Z,12.93
2022-10-04T21:43:17.680Z,5.30
2022-10-04T21:48:32.678Z,7.35
2022-10-04T21:53:47.695Z,5.72
2022-10-04T21:59:03.021Z,3.95
2022-10-04T22:04:18.689Z,3.88
2022-10-04T22:09:33.678Z,7.40
2022-10-04T22:14:48.664Z,4.28
2022-10-04T22:20:04.034Z,5.35
2022-10-04T22:25:19.712Z,9.18
2022-10-04T22:30:34.747Z,5.03
2022-10-04T22:35:49.927Z,4.75
2022-10-04T22:41:05.983Z,4.85
2022-10-04T22:46:21.776Z,3.50
2022-10-04T22:51:37.019Z,4.43
2022-10-04T22:56:52.687Z,6.63
2022-10-04T23:02:07.721Z,5.50
2022-10-04T23:07:22.675Z,5.55
2022-10-04T23:12:37.670Z,3.40
2022-10-04T23:17:52.686Z,4.90
2022-10-04T23:23:07.753Z,9.05
2022-10-04T23:28:22.765Z,5.95
2022-10-04T23:33:38.049Z,6.93
2022-10-04T23:38:53.641Z,7.13
2022-10-04T23:44:08.697Z,4.10
2022-10-04T23:49:24.003Z,3.97
2022-10-04T23:54:39.719Z,4.45
2022-10-04T23:59:54.718Z,5.40
